sensor_id;sensor_type;location;lat;lon;timestamp;temperature;humidity
3994;DHT22;2011;48.238;13.948;2023-02-01T00:00:20;3.40;99.90
3994;DHT22;2011;48.238;13.948;2023-02-01T00:02:47;3.40;99.90
3994;DHT22;2011;48.238;13.948;2023-02-01T00:05:14;3.40;99.90
3994;DHT22;2011;48.238;13.948;2023-02-01T00:07:41;3.40;99.90
3994;DHT22;2011;48.238;13.948;2023-02-01T00:10:09;3.40;99.90
3994;DHT22;2011;48.238;13.948;2023-02-01T00:12:38;3.50;99.90
3994;DHT22;2011;48.238;13.948;2023-02-01T00:15:06;3.50;99.90
3994;DHT22;2011;48.238;13.948;2023-02-01T00:17:33;3.50;99.90
3994;DHT22;2011;48.238;13.948;2023-02-01T00:20:00;3.50;99.90
3994;DHT22;2011;48.238;13.948;2023-02-01T00:22:27;3.50;99.90
3994;DHT22;2011;48.238;13.948;2023-02-01T00:24:54;3.50;99.90
3994;DHT22;2011;48.238;13.948;2023-02-01T00:27:21;3.50;99.90
3994;DHT22;2011;48.238;13.948;2023-02-01T00:29:50;3.50;99.90
3994;DHT22;2011;48.238;13.948;2023-02-01T00:32:17;3.50;99.90
3994;DHT22;2011;48.238;13.948;2023-02-01T00:34:44;3.50;99.90
3994;DHT22;2011;48.238;13.948;2023-02-01T00:37:11;3.40;99.90
3994;DHT22;2011;48.238;13.948;2023-02-01T00:39:38;3.40;99.90
3994;DHT22;2011;48.238;13.948;2023-02-01T00:42:05;3.50;99.90
3994;DHT22;2011;48.238;13.948;2023-02-01T00:44:32;3.40;99.90
3994;DHT22;2011;48.238;13.948;2023-02-01T00:47:02;3.40;99.90
3994;DHT22;2011;48.238;13.948;2023-02-01T00:49:29;3.50;99.90
3994;DHT22;2011;48.238;13.948;2023-02-01T00:51:56;3.50;99.90
3994;DHT22;2011;48.238;13.948;2023-02-01T00:54:23;3.50;99.90
3994;DHT22;2011;48.238;13.948;2023-02-01T00:56:50;3.50;99.90
3994;DHT22;2011;48.238;13.948;2023-02-01T00:59:17;3.50;99.90
3994;DHT22;2011;48.238;13.948;2023-02-01T01:01:44;3.60;99.90
3994;DHT22;2011;48.238;13.948;2023-02-01T01:04:13;3.60;99.90
3994;DHT22;2011;48.238;13.948;2023-02-01T01:06:39;3.60;99.90
3994;DHT22;2011;48.238;13.948;2023-02-01T01:09:07;3.60;99.90
3994;DHT22;2011;48.238;13.948;2023-02-01T01:11:37;3.60;99.90
3994;DHT22;2011;48.238;13.948;2023-02-01T01:14:05;3.60;99.90
3994;DHT22;2011;48.238;13.948;2023-02-01T01:16:33;3.60;99.90
3994;DHT22;2011;48.238;13.948;2023-02-01T01:19:01;3.70;99.90
3994;DHT22;2011;48.238;13.948;2023-02-01T01:21:30;3.70;99.90
3994;DHT22;2011;48.238;13.948;2023-02-01T01:23:57;3.70;99.90
3994;DHT22;2011;48.238;13.948;2023-02-01T01:26:26;3.70;99.90
3994;DHT22;2011;48.238;13.948;2023-02-01T01:28:55;3.80;99.90
3994;DHT22;2011;48.238;13.948;2023-02-01T01:31:22;3.80;99.90
3994;DHT22;2011;48.238;13.948;2023-02-01T01:33:51;3.80;99.90
3994;DHT22;2011;48.238;13.948;2023-02-01T01:36:19;3.80;99.90
3994;DHT22;2011;48.238;13.948;2023-02-01T01:38:48;3.80;99.90
3994;DHT22;2011;48.238;13.948;2023-02-01T01:41:18;3.80;99.90
3994;DHT22;2011;48.238;13.948;2023-02-01T01:43:50;3.80;99.90
3994;DHT22;2011;48.238;13.948;2023-02-01T01:46:19;3.90;99.90
3994;DHT22;2011;48.238;13.948;2023-02-01T01:48:49;3.90;99.90
3994;DHT22;2011;48.238;13.948;2023-02-01T01:51:20;3.90;99.90
3994;DHT22;2011;48.238;13.948;2023-02-01T01:53:56;3.90;99.90
3994;DHT22;2011;48.238;13.948;2023-02-01T01:56:25;3.90;99.90
3994;DHT22;2011;48.238;13.948;2023-02-01T01:58:53;3.90;99.90
3994;DHT22;2011;48.238;13.948;2023-02-01T02:01:20;3.90;99.90
3994;DHT22;2011;48.238;13.948;2023-02-01T02:03:47;3.90;99.90
3994;DHT22;2011;48.238;13.948;2023-02-01T02:06:26;3.90;99.90
3994;DHT22;2011;48.238;13.948;2023-02-01T02:08:55;3.90;99.90
3994;DHT22;2011;48.238;13.948;2023-02-01T02:11:22;4.00;99.90
3994;DHT22;2011;48.238;13.948;2023-02-01T02:13:52;4.00;99.90
3994;DHT22;2011;48.238;13.948;2023-02-01T02:16:45;4.00;99.90
3994;DHT22;2011;48.238;13.948;2023-02-01T02:28:24;4.00;99.90
3994;DHT22;2011;48.238;13.948;2023-02-01T02:31:13;4.00;99.90
3994;DHT22;2011;48.238;13.948;2023-02-01T02:33:58;4.00;99.90
3994;DHT22;2011;48.238;13.948;2023-02-01T02:36:34;3.90;99.90
3994;DHT22;2011;48.238;13.948;2023-02-01T02:39:07;4.00;99.90
3994;DHT22;2011;48.238;13.948;2023-02-01T02:41:46;3.90;99.90
3994;DHT22;2011;48.238;13.948;2023-02-01T02:44:36;3.90;99.90
3994;DHT22;2011;48.238;13.948;2023-02-01T02:47:27;3.90;99.90
3994;DHT22;2011;48.238;13.948;2023-02-01T02:50:02;3.90;99.90
3994;DHT22;2011;48.238;13.948;2023-02-01T02:52:51;4.00;99.90
3994;DHT22;2011;48.238;13.948;2023-02-01T02:55:38;3.90;99.90
3994;DHT22;2011;48.238;13.948;2023-02-01T02:58:07;4.00;99.90
3994;DHT22;2011;48.238;13.948;2023-02-01T03:00:53;4.00;99.90
3994;DHT22;2011;48.238;13.948;2023-02-01T03:03:39;4.00;99.90
3994;DHT22;2011;48.238;13.948;2023-02-01T03:06:25;4.00;99.90
3994;DHT22;2011;48.238;13.948;2023-02-01T03:08:55;4.00;99.90
3994;DHT22;2011;48.238;13.948;2023-02-01T03:11:24;4.00;99.90
3994;DHT22;2011;48.238;13.948;2023-02-01T03:14:14;4.00;99.90
3994;DHT22;2011;48.238;13.948;2023-02-01T03:16:45;4.10;99.90
3994;DHT22;2011;48.238;13.948;2023-02-01T03:19:17;4.10;99.90
3994;DHT22;2011;48.238;13.948;2023-02-01T03:21:50;4.00;99.90
3994;DHT22;2011;48.238;13.948;2023-02-01T03:24:23;4.00;99.90
3994;DHT22;2011;48.238;13.948;2023-02-01T03:27:02;4.00;99.90
3994;DHT22;2011;48.238;13.948;2023-02-01T03:29:37;4.00;99.90
3994;DHT22;2011;48.238;13.948;2023-02-01T03:32:04;4.00;99.90
3994;DHT22;2011;48.238;13.948;2023-02-01T03:34:32;4.00;99.90
3994;DHT22;2011;48.238;13.948;2023-02-01T03:37:04;4.00;99.90
3994;DHT22;2011;48.238;13.948;2023-02-01T03:39:35;4.00;99.90
3994;DHT22;2011;48.238;13.948;2023-02-01T03:42:05;4.00;99.90
3994;DHT22;2011;48.238;13.948;2023-02-01T03:44:35;4.00;99.90
3994;DHT22;2011;48.238;13.948;2023-02-01T03:47:06;4.00;99.90
3994;DHT22;2011;48.238;13.948;2023-02-01T03:49:37;4.00;99.90
3994;DHT22;2011;48.238;13.948;2023-02-01T03:52:09;4.00;99.90
3994;DHT22;2011;48.238;13.948;2023-02-01T03:54:38;4.00;99.90
3994;DHT22;2011;48.238;13.948;2023-02-01T03:57:13;4.00;99.90
3994;DHT22;2011;48.238;13.948;2023-02-01T03:59:45;4.00;99.90
3994;DHT22;2011;48.238;13.948;2023-02-01T04:02:12;4.00;99.90
3994;DHT22;2011;48.238;13.948;2023-02-01T04:04:39;4.00;99.90
3994;DHT22;2011;48.238;13.948;2023-02-01T04:07:07;4.00;99.90
3994;DHT22;2011;48.238;13.948;2023-02-01T04:09:35;4.00;99.90
3994;DHT22;2011;48.238;13.948;2023-02-01T04:12:02;4.10;99.90
3994;DHT22;2011;48.238;13.948;2023-02-01T04:14:29;4.10;99.90
3994;DHT22;2011;48.238;13.948;2023-02-01T04:16:56;4.10;99.90
3994;DHT22;2011;48.238;13.948;2023-02-01T04:19:23;4.10;99.90
3994;DHT22;2011;48.238;13.948;2023-02-01T04:21:50;4.10;99.90
3994;DHT22;2011;48.238;13.948;2023-02-01T04:24:18;4.10;99.90
3994;DHT22;2011;48.238;13.948;2023-02-01T04:26:45;4.10;99.90
3994;DHT22;2011;48.238;13.948;2023-02-01T04:29:12;4.10;99.90
3994;DHT22;2011;48.238;13.948;2023-02-01T04:31:39;4.10;99.90
3994;DHT22;2011;48.238;13.948;2023-02-01T04:34:06;4.10;99.90
3994;DHT22;2011;48.238;13.948;2023-02-01T04:36:33;4.10;99.90
3994;DHT22;2011;48.238;13.948;2023-02-01T04:39:00;4.10;99.90
3994;DHT22;2011;48.238;13.948;2023-02-01T04:41:29;4.20;99.90
3994;DHT22;2011;48.238;13.948;2023-02-01T04:43:56;4.20;99.90
3994;DHT22;2011;48.238;13.948;2023-02-01T04:46:23;4.20;99.90
3994;DHT22;2011;48.238;13.948;2023-02-01T04:48:50;4.10;99.90
3994;DHT22;2011;48.238;13.948;2023-02-01T04:51:17;4.20;99.90
3994;DHT22;2011;48.238;13.948;2023-02-01T04:53:44;4.20;99.90
3994;DHT22;2011;48.238;13.948;2023-02-01T04:56:11;4.20;99.90
3994;DHT22;2011;48.238;13.948;2023-02-01T04:58:40;4.20;99.90
3994;DHT22;2011;48.238;13.948;2023-02-01T05:01:07;4.20;99.90
3994;DHT22;2011;48.238;13.948;2023-02-01T05:03:34;4.20;99.90
3994;DHT22;2011;48.238;13.948;2023-02-01T05:06:01;4.20;99.90
3994;DHT22;2011;48.238;13.948;2023-02-01T05:08:29;4.30;99.90
3994;DHT22;2011;48.238;13.948;2023-02-01T05:10:57;4.20;99.90
3994;DHT22;2011;48.238;13.948;2023-02-01T05:13:24;4.30;99.90
3994;DHT22;2011;48.238;13.948;2023-02-01T05:16:10;4.20;99.90
3994;DHT22;2011;48.238;13.948;2023-02-01T05:18:37;4.30;99.90
3994;DHT22;2011;48.238;13.948;2023-02-01T05:21:04;4.20;99.90
3994;DHT22;2011;48.238;13.948;2023-02-01T05:23:31;4.20;99.90
3994;DHT22;2011;48.238;13.948;2023-02-01T05:26:18;4.20;99.90
3994;DHT22;2011;48.238;13.948;2023-02-01T05:28:45;4.20;99.90
3994;DHT22;2011;48.238;13.948;2023-02-01T05:31:14;4.30;99.90
3994;DHT22;2011;48.238;13.948;2023-02-01T05:33:40;4.30;99.90
3994;DHT22;2011;48.238;13.948;2023-02-01T05:36:07;4.30;99.90
3994;DHT22;2011;48.238;13.948;2023-02-01T05:38:34;4.30;99.90
3994;DHT22;2011;48.238;13.948;2023-02-01T05:41:01;4.30;99.90
3994;DHT22;2011;48.238;13.948;2023-02-01T05:43:28;4.20;99.90
3994;DHT22;2011;48.238;13.948;2023-02-01T05:45:55;4.20;99.90
3994;DHT22;2011;48.238;13.948;2023-02-01T05:48:24;4.20;99.90
3994;DHT22;2011;48.238;13.948;2023-02-01T05:50:50;4.20;99.90
3994;DHT22;2011;48.238;13.948;2023-02-01T05:53:17;4.20;99.90
3994;DHT22;2011;48.238;13.948;2023-02-01T05:55:44;4.30;99.90
3994;DHT22;2011;48.238;13.948;2023-02-01T05:58:11;4.20;99.90
3994;DHT22;2011;48.238;13.948;2023-02-01T06:00:39;4.30;99.90
3994;DHT22;2011;48.238;13.948;2023-02-01T06:03:06;4.30;99.90
3994;DHT22;2011;48.238;13.948;2023-02-01T06:05:34;4.30;99.90
3994;DHT22;2011;48.238;13.948;2023-02-01T06:08:02;4.20;99.90
3994;DHT22;2011;48.238;13.948;2023-02-01T06:10:29;4.30;99.90
3994;DHT22;2011;48.238;13.948;2023-02-01T06:12:56;4.30;99.90
3994;DHT22;2011;48.238;13.948;2023-02-01T06:15:23;4.20;99.90
3994;DHT22;2011;48.238;13.948;2023-02-01T06:17:50;4.20;99.90
3994;DHT22;2011;48.238;13.948;2023-02-01T06:20:17;4.20;99.90
3994;DHT22;2011;48.238;13.948;2023-02-01T06:22:45;4.20;99.90
3994;DHT22;2011;48.238;13.948;2023-02-01T06:25:13;4.20;99.90
3994;DHT22;2011;48.238;13.948;2023-02-01T06:27:40;4.20;99.90
3994;DHT22;2011;48.238;13.948;2023-02-01T06:30:08;4.20;99.90
3994;DHT22;2011;48.238;13.948;2023-02-01T06:32:35;4.20;99.90
3994;DHT22;2011;48.238;13.948;2023-02-01T06:35:02;4.20;99.90
3994;DHT22;2011;48.238;13.948;2023-02-01T06:37:29;4.20;99.90
3994;DHT22;2011;48.238;13.948;2023-02-01T06:39:57;4.20;99.90
3994;DHT22;2011;48.238;13.948;2023-02-01T06:42:24;4.10;99.90
3994;DHT22;2011;48.238;13.948;2023-02-01T06:44:51;4.10;99.90
3994;DHT22;2011;48.238;13.948;2023-02-01T06:47:18;4.10;99.90
3994;DHT22;2011;48.238;13.948;2023-02-01T06:49:46;4.10;99.90
3994;DHT22;2011;48.238;13.948;2023-02-01T06:52:13;4.10;99.90
3994;DHT22;2011;48.238;13.948;2023-02-01T06:54:40;4.20;99.90
3994;DHT22;2011;48.238;13.948;2023-02-01T06:57:08;4.20;99.90
3994;DHT22;2011;48.238;13.948;2023-02-01T06:59:35;4.10;99.90
3994;DHT22;2011;48.238;13.948;2023-02-01T07:02:02;4.20;99.90
3994;DHT22;2011;48.238;13.948;2023-02-01T07:04:29;4.20;99.90
3994;DHT22;2011;48.238;13.948;2023-02-01T07:06:56;4.10;99.90
3994;DHT22;2011;48.238;13.948;2023-02-01T07:09:23;4.20;99.90
3994;DHT22;2011;48.238;13.948;2023-02-01T07:11:50;4.20;99.90
3994;DHT22;2011;48.238;13.948;2023-02-01T07:14:18;4.20;99.90
3994;DHT22;2011;48.238;13.948;2023-02-01T07:16:45;4.20;99.90
3994;DHT22;2011;48.238;13.948;2023-02-01T07:19:12;4.20;99.90
3994;DHT22;2011;48.238;13.948;2023-02-01T07:21:39;4.20;99.90
3994;DHT22;2011;48.238;13.948;2023-02-01T07:24:06;4.20;99.90
3994;DHT22;2011;48.238;13.948;2023-02-01T07:26:33;4.20;99.90
3994;DHT22;2011;48.238;13.948;2023-02-01T07:29:00;4.30;99.90
3994;DHT22;2011;48.238;13.948;2023-02-01T07:31:28;4.30;99.90
3994;DHT22;2011;48.238;13.948;2023-02-01T07:33:55;4.30;99.90
3994;DHT22;2011;48.238;13.948;2023-02-01T07:36:23;4.30;99.90
3994;DHT22;2011;48.238;13.948;2023-02-01T07:38:50;4.40;99.90
3994;DHT22;2011;48.238;13.948;2023-02-01T07:41:18;4.30;99.90
3994;DHT22;2011;48.238;13.948;2023-02-01T07:43:45;4.40;99.90
3994;DHT22;2011;48.238;13.948;2023-02-01T07:46:12;4.40;99.90
3994;DHT22;2011;48.238;13.948;2023-02-01T07:48:42;4.40;99.90
3994;DHT22;2011;48.238;13.948;2023-02-01T07:51:10;4.40;99.90
3994;DHT22;2011;48.238;13.948;2023-02-01T07:53:38;4.40;99.90
3994;DHT22;2011;48.238;13.948;2023-02-01T07:56:10;4.40;99.90
3994;DHT22;2011;48.238;13.948;2023-02-01T07:58:37;4.50;99.90
3994;DHT22;2011;48.238;13.948;2023-02-01T08:01:04;4.50;99.90
3994;DHT22;2011;48.238;13.948;2023-02-01T08:03:48;4.60;99.90
3994;DHT22;2011;48.238;13.948;2023-02-01T08:06:16;4.60;99.90
3994;DHT22;2011;48.238;13.948;2023-02-01T08:08:43;4.60;99.90
3994;DHT22;2011;48.238;13.948;2023-02-01T08:11:11;4.60;99.90
3994;DHT22;2011;48.238;13.948;2023-02-01T08:13:38;4.60;99.90
3994;DHT22;2011;48.238;13.948;2023-02-01T08:16:07;4.60;99.90
3994;DHT22;2011;48.238;13.948;2023-02-01T08:18:35;4.60;99.90
3994;DHT22;2011;48.238;13.948;2023-02-01T08:21:06;4.60;99.90
3994;DHT22;2011;48.238;13.948;2023-02-01T08:23:33;4.70;99.90
3994;DHT22;2011;48.238;13.948;2023-02-01T08:26:07;4.70;99.90
3994;DHT22;2011;48.238;13.948;2023-02-01T08:28:35;4.70;99.90
3994;DHT22;2011;48.238;13.948;2023-02-01T08:31:05;4.70;99.90
3994;DHT22;2011;48.238;13.948;2023-02-01T08:33:32;4.80;99.90
3994;DHT22;2011;48.238;13.948;2023-02-01T08:36:01;4.80;99.90
3994;DHT22;2011;48.238;13.948;2023-02-01T08:38:29;4.80;99.90
3994;DHT22;2011;48.238;13.948;2023-02-01T08:40:56;4.80;99.90
3994;DHT22;2011;48.238;13.948;2023-02-01T08:43:23;4.80;99.90
3994;DHT22;2011;48.238;13.948;2023-02-01T08:45:54;4.80;99.90
3994;DHT22;2011;48.238;13.948;2023-02-01T08:48:21;4.80;99.90
3994;DHT22;2011;48.238;13.948;2023-02-01T08:50:48;4.80;99.90
3994;DHT22;2011;48.238;13.948;2023-02-01T08:53:15;4.80;99.90
3994;DHT22;2011;48.238;13.948;2023-02-01T08:55:45;4.90;99.90
3994;DHT22;2011;48.238;13.948;2023-02-01T08:58:13;4.80;99.90
3994;DHT22;2011;48.238;13.948;2023-02-01T09:00:43;4.80;99.90
3994;DHT22;2011;48.238;13.948;2023-02-01T09:03:11;4.70;99.90
3994;DHT22;2011;48.238;13.948;2023-02-01T09:05:39;4.70;99.90
3994;DHT22;2011;48.238;13.948;2023-02-01T09:08:06;4.70;99.90
3994;DHT22;2011;48.238;13.948;2023-02-01T09:10:33;4.70;99.90
3994;DHT22;2011;48.238;13.948;2023-02-01T09:13:02;4.80;99.90
3994;DHT22;2011;48.238;13.948;2023-02-01T09:15:29;4.80;99.90
3994;DHT22;2011;48.238;13.948;2023-02-01T09:17:56;4.80;99.90
3994;DHT22;2011;48.238;13.948;2023-02-01T09:20:23;4.80;99.90
3994;DHT22;2011;48.238;13.948;2023-02-01T09:22:50;4.80;99.90
3994;DHT22;2011;48.238;13.948;2023-02-01T09:25:18;4.90;99.90
3994;DHT22;2011;48.238;13.948;2023-02-01T09:27:45;4.90;99.90
3994;DHT22;2011;48.238;13.948;2023-02-01T09:30:13;4.90;99.90
3994;DHT22;2011;48.238;13.948;2023-02-01T09:32:40;5.00;99.90
3994;DHT22;2011;48.238;13.948;2023-02-01T09:35:08;5.10;99.90
3994;DHT22;2011;48.238;13.948;2023-02-01T09:37:34;5.00;99.90
3994;DHT22;2011;48.238;13.948;2023-02-01T09:40:03;5.00;99.90
3994;DHT22;2011;48.238;13.948;2023-02-01T09:43:05;5.00;99.90
3994;DHT22;2011;48.238;13.948;2023-02-01T09:45:42;5.00;99.90
3994;DHT22;2011;48.238;13.948;2023-02-01T09:48:13;5.00;99.90
3994;DHT22;2011;48.238;13.948;2023-02-01T09:50:46;5.00;99.90
3994;DHT22;2011;48.238;13.948;2023-02-01T09:53:19;4.90;99.90
3994;DHT22;2011;48.238;13.948;2023-02-01T09:55:49;4.90;99.90
3994;DHT22;2011;48.238;13.948;2023-02-01T09:58:21;4.90;99.90
3994;DHT22;2011;48.238;13.948;2023-02-01T10:00:53;4.90;99.90
3994;DHT22;2011;48.238;13.948;2023-02-01T10:03:23;4.90;99.90
3994;DHT22;2011;48.238;13.948;2023-02-01T10:06:07;4.90;99.90
3994;DHT22;2011;48.238;13.948;2023-02-01T10:11:42;5.00;99.90
3994;DHT22;2011;48.238;13.948;2023-02-01T10:17:20;4.90;99.90
3994;DHT22;2011;48.238;13.948;2023-02-01T10:19:56;4.90;99.90
3994;DHT22;2011;48.238;13.948;2023-02-01T10:22:34;4.80;99.90
3994;DHT22;2011;48.238;13.948;2023-02-01T10:25:12;4.80;99.90
3994;DHT22;2011;48.238;13.948;2023-02-01T10:27:40;4.70;99.90
3994;DHT22;2011;48.238;13.948;2023-02-01T10:30:18;4.80;99.90
3994;DHT22;2011;48.238;13.948;2023-02-01T10:32:48;4.80;99.90
3994;DHT22;2011;48.238;13.948;2023-02-01T10:35:18;4.90;99.90
3994;DHT22;2011;48.238;13.948;2023-02-01T10:37:47;4.90;99.90
3994;DHT22;2011;48.238;13.948;2023-02-01T10:40:19;5.00;99.90
3994;DHT22;2011;48.238;13.948;2023-02-01T10:42:47;5.00;99.90
3994;DHT22;2011;48.238;13.948;2023-02-01T10:45:17;5.10;99.90
3994;DHT22;2011;48.238;13.948;2023-02-01T10:47:49;5.10;99.90
3994;DHT22;2011;48.238;13.948;2023-02-01T10:50:22;5.10;99.90
3994;DHT22;2011;48.238;13.948;2023-02-01T10:52:58;5.10;99.90
3994;DHT22;2011;48.238;13.948;2023-02-01T10:55:35;5.20;99.90
3994;DHT22;2011;48.238;13.948;2023-02-01T10:58:05;5.20;99.90
3994;DHT22;2011;48.238;13.948;2023-02-01T11:00:39;5.20;99.90
3994;DHT22;2011;48.238;13.948;2023-02-01T11:03:22;5.20;99.90
3994;DHT22;2011;48.238;13.948;2023-02-01T11:05:55;5.20;99.90
3994;DHT22;2011;48.238;13.948;2023-02-01T11:08:22;5.20;99.90
3994;DHT22;2011;48.238;13.948;2023-02-01T11:10:57;4.80;99.90
3994;DHT22;2011;48.238;13.948;2023-02-01T11:13:29;4.50;99.90
3994;DHT22;2011;48.238;13.948;2023-02-01T11:15:59;4.30;99.90
3994;DHT22;2011;48.238;13.948;2023-02-01T11:18:30;4.10;99.90
3994;DHT22;2011;48.238;13.948;2023-02-01T11:20:58;3.90;99.90
3994;DHT22;2011;48.238;13.948;2023-02-01T11:23:28;3.90;99.90
3994;DHT22;2011;48.238;13.948;2023-02-01T11:25:58;3.90;99.90
3994;DHT22;2011;48.238;13.948;2023-02-01T11:28:29;4.00;99.90
3994;DHT22;2011;48.238;13.948;2023-02-01T11:30:58;4.00;99.90
3994;DHT22;2011;48.238;13.948;2023-02-01T11:33:32;4.00;99.90
3994;DHT22;2011;48.238;13.948;2023-02-01T11:36:05;4.10;99.90
3994;DHT22;2011;48.238;13.948;2023-02-01T11:38:34;4.10;99.90
3994;DHT22;2011;48.238;13.948;2023-02-01T11:41:14;4.30;99.90
3994;DHT22;2011;48.238;13.948;2023-02-01T11:43:52;4.50;99.90
3994;DHT22;2011;48.238;13.948;2023-02-01T11:46:21;4.70;99.90
3994;DHT22;2011;48.238;13.948;2023-02-01T11:48:52;4.90;99.90
3994;DHT22;2011;48.238;13.948;2023-02-01T11:51:33;5.00;99.90
3994;DHT22;2011;48.238;13.948;2023-02-01T11:54:28;5.10;99.90
3994;DHT22;2011;48.238;13.948;2023-02-01T11:57:07;5.40;99.90
3994;DHT22;2011;48.238;13.948;2023-02-01T11:59:54;5.50;99.90
3994;DHT22;2011;48.238;13.948;2023-02-01T12:02:56;5.70;99.90
3994;DHT22;2011;48.238;13.948;2023-02-01T12:05:41;5.80;99.90
3994;DHT22;2011;48.238;13.948;2023-02-01T12:08:48;6.00;99.90
3994;DHT22;2011;48.238;13.948;2023-02-01T12:11:30;6.00;99.90
3994;DHT22;2011;48.238;13.948;2023-02-01T12:14:09;6.00;99.90
3994;DHT22;2011;48.238;13.948;2023-02-01T12:16:51;6.00;99.90
3994;DHT22;2011;48.238;13.948;2023-02-01T12:19:30;6.10;99.90
3994;DHT22;2011;48.238;13.948;2023-02-01T12:22:14;6.10;99.90
3994;DHT22;2011;48.238;13.948;2023-02-01T12:25:10;6.00;99.90
3994;DHT22;2011;48.238;13.948;2023-02-01T12:28:00;6.10;99.90
3994;DHT22;2011;48.238;13.948;2023-02-01T12:33:30;6.10;99.90
3994;DHT22;2011;48.238;13.948;2023-02-01T12:36:15;6.10;99.90
3994;DHT22;2011;48.238;13.948;2023-02-01T12:38:54;6.20;99.90
3994;DHT22;2011;48.238;13.948;2023-02-01T12:41:47;6.30;99.90
3994;DHT22;2011;48.238;13.948;2023-02-01T12:44:24;6.30;99.90
3994;DHT22;2011;48.238;13.948;2023-02-01T12:46:54;6.50;99.90
3994;DHT22;2011;48.238;13.948;2023-02-01T12:49:29;6.70;99.90
3994;DHT22;2011;48.238;13.948;2023-02-01T12:52:01;6.70;99.90
3994;DHT22;2011;48.238;13.948;2023-02-01T12:54:34;6.70;99.90
3994;DHT22;2011;48.238;13.948;2023-02-01T12:57:05;6.90;99.90
3994;DHT22;2011;48.238;13.948;2023-02-01T12:59:36;6.80;99.90
3994;DHT22;2011;48.238;13.948;2023-02-01T13:02:11;6.80;99.90
3994;DHT22;2011;48.238;13.948;2023-02-01T13:04:49;6.60;99.90
3994;DHT22;2011;48.238;13.948;2023-02-01T13:07:21;6.40;99.90
3994;DHT22;2011;48.238;13.948;2023-02-01T13:09:53;6.30;99.90
3994;DHT22;2011;48.238;13.948;2023-02-01T13:12:26;6.10;99.90
3994;DHT22;2011;48.238;13.948;2023-02-01T13:14:57;6.00;99.90
3994;DHT22;2011;48.238;13.948;2023-02-01T13:17:26;6.00;99.90
3994;DHT22;2011;48.238;13.948;2023-02-01T13:19:57;6.00;99.90
3994;DHT22;2011;48.238;13.948;2023-02-01T13:22:29;5.90;99.90
3994;DHT22;2011;48.238;13.948;2023-02-01T13:25:03;5.90;99.90
3994;DHT22;2011;48.238;13.948;2023-02-01T13:27:32;5.80;99.90
3994;DHT22;2011;48.238;13.948;2023-02-01T13:30:01;5.70;99.90
3994;DHT22;2011;48.238;13.948;2023-02-01T13:33:03;5.60;99.90
3994;DHT22;2011;48.238;13.948;2023-02-01T13:35:54;5.40;99.90
3994;DHT22;2011;48.238;13.948;2023-02-01T13:38:54;5.30;99.90
3994;DHT22;2011;48.238;13.948;2023-02-01T13:41:31;5.20;99.90
3994;DHT22;2011;48.238;13.948;2023-02-01T13:44:02;5.00;99.90
3994;DHT22;2011;48.238;13.948;2023-02-01T13:46:39;4.90;99.90
3994;DHT22;2011;48.238;13.948;2023-02-01T13:49:13;4.80;99.90
3994;DHT22;2011;48.238;13.948;2023-02-01T13:51:43;4.70;99.90
3994;DHT22;2011;48.238;13.948;2023-02-01T13:54:25;4.60;99.90
3994;DHT22;2011;48.238;13.948;2023-02-01T13:56:55;4.50;99.90
3994;DHT22;2011;48.238;13.948;2023-02-01T13:59:51;4.60;99.90
3994;DHT22;2011;48.238;13.948;2023-02-01T14:02:48;4.50;99.90
3994;DHT22;2011;48.238;13.948;2023-02-01T14:08:37;4.50;99.90
3994;DHT22;2011;48.238;13.948;2023-02-01T14:11:05;4.50;99.90
3994;DHT22;2011;48.238;13.948;2023-02-01T14:13:34;4.50;99.90
3994;DHT22;2011;48.238;13.948;2023-02-01T14:16:13;4.60;99.90
3994;DHT22;2011;48.238;13.948;2023-02-01T14:19:00;4.50;99.90
3994;DHT22;2011;48.238;13.948;2023-02-01T14:21:30;4.60;99.90
3994;DHT22;2011;48.238;13.948;2023-02-01T14:24:00;4.60;99.90
3994;DHT22;2011;48.238;13.948;2023-02-01T14:26:41;4.60;99.90
3994;DHT22;2011;48.238;13.948;2023-02-01T14:29:34;4.70;99.90
3994;DHT22;2011;48.238;13.948;2023-02-01T14:32:05;4.70;99.90
3994;DHT22;2011;48.238;13.948;2023-02-01T14:34:39;4.70;99.90
3994;DHT22;2011;48.238;13.948;2023-02-01T14:37:13;4.80;99.90
3994;DHT22;2011;48.238;13.948;2023-02-01T14:39:56;4.80;99.90
3994;DHT22;2011;48.238;13.948;2023-02-01T14:42:28;4.90;99.90
3994;DHT22;2011;48.238;13.948;2023-02-01T14:48:41;5.00;99.90
3994;DHT22;2011;48.238;13.948;2023-02-01T14:51:12;5.00;99.90
3994;DHT22;2011;48.238;13.948;2023-02-01T14:53:40;5.10;99.90
3994;DHT22;2011;48.238;13.948;2023-02-01T14:56:12;5.10;99.90
3994;DHT22;2011;48.238;13.948;2023-02-01T14:58:42;5.10;99.90
3994;DHT22;2011;48.238;13.948;2023-02-01T15:01:18;5.20;99.90
3994;DHT22;2011;48.238;13.948;2023-02-01T15:03:56;5.10;99.90
3994;DHT22;2011;48.238;13.948;2023-02-01T15:06:32;5.10;99.90
3994;DHT22;2011;48.238;13.948;2023-02-01T15:09:02;5.20;99.90
3994;DHT22;2011;48.238;13.948;2023-02-01T15:11:30;5.20;99.90
3994;DHT22;2011;48.238;13.948;2023-02-01T15:13:57;5.20;99.90
3994;DHT22;2011;48.238;13.948;2023-02-01T15:16:27;5.30;99.90
3994;DHT22;2011;48.238;13.948;2023-02-01T15:19:10;5.20;99.90
3994;DHT22;2011;48.238;13.948;2023-02-01T15:21:46;5.20;99.90
3994;DHT22;2011;48.238;13.948;2023-02-01T15:24:14;5.20;99.90
3994;DHT22;2011;48.238;13.948;2023-02-01T15:26:41;5.20;99.90
3994;DHT22;2011;48.238;13.948;2023-02-01T15:29:13;5.20;99.90
3994;DHT22;2011;48.238;13.948;2023-02-01T15:31:43;5.20;99.90
3994;DHT22;2011;48.238;13.948;2023-02-01T15:34:11;5.20;99.90
3994;DHT22;2011;48.238;13.948;2023-02-01T15:36:38;5.20;99.90
3994;DHT22;2011;48.238;13.948;2023-02-01T15:39:23;5.20;99.90
3994;DHT22;2011;48.238;13.948;2023-02-01T15:41:54;5.30;99.90
3994;DHT22;2011;48.238;13.948;2023-02-01T15:44:32;5.10;99.90
3994;DHT22;2011;48.238;13.948;2023-02-01T15:47:06;5.10;99.90
3994;DHT22;2011;48.238;13.948;2023-02-01T15:49:37;5.20;99.90
3994;DHT22;2011;48.238;13.948;2023-02-01T15:52:22;5.20;99.90
3994;DHT22;2011;48.238;13.948;2023-02-01T15:54:52;5.20;99.90
3994;DHT22;2011;48.238;13.948;2023-02-01T15:57:22;5.40;99.90
3994;DHT22;2011;48.238;13.948;2023-02-01T15:59:56;5.20;99.90
3994;DHT22;2011;48.238;13.948;2023-02-01T16:02:28;5.20;99.90
3994;DHT22;2011;48.238;13.948;2023-02-01T16:04:55;5.10;99.90
3994;DHT22;2011;48.238;13.948;2023-02-01T16:07:26;5.10;99.90
3994;DHT22;2011;48.238;13.948;2023-02-01T16:09:55;5.10;99.90
3994;DHT22;2011;48.238;13.948;2023-02-01T16:12:29;5.10;99.90
3994;DHT22;2011;48.238;13.948;2023-02-01T16:14:57;5.10;99.90
3994;DHT22;2011;48.238;13.948;2023-02-01T16:17:25;5.10;99.90
3994;DHT22;2011;48.238;13.948;2023-02-01T16:19:52;5.20;99.90
3994;DHT22;2011;48.238;13.948;2023-02-01T16:22:19;5.20;99.90
3994;DHT22;2011;48.238;13.948;2023-02-01T16:24:46;5.10;99.90
3994;DHT22;2011;48.238;13.948;2023-02-01T16:27:13;5.20;99.90
3994;DHT22;2011;48.238;13.948;2023-02-01T16:29:40;5.20;99.90
3994;DHT22;2011;48.238;13.948;2023-02-01T16:32:12;5.20;99.90
3994;DHT22;2011;48.238;13.948;2023-02-01T16:34:43;5.20;99.90
3994;DHT22;2011;48.238;13.948;2023-02-01T16:37:12;5.20;99.90
3994;DHT22;2011;48.238;13.948;2023-02-01T16:39:39;5.30;99.90
3994;DHT22;2011;48.238;13.948;2023-02-01T16:42:10;5.20;99.90
3994;DHT22;2011;48.238;13.948;2023-02-01T16:44:38;5.20;99.90
3994;DHT22;2011;48.238;13.948;2023-02-01T16:47:11;5.20;99.90
3994;DHT22;2011;48.238;13.948;2023-02-01T16:49:40;5.20;99.90
3994;DHT22;2011;48.238;13.948;2023-02-01T16:52:13;5.20;99.90
3994;DHT22;2011;48.238;13.948;2023-02-01T16:54:40;5.20;99.90